Time;durP1;ratioP1;P1;durP2;ratioP2;P2;SDS_P1;SDS_P2;PMS_P1;PMS_P2;Temp;Humidity;BMP_temperature;BMP_pressure;BME280_temperature;BME280_humidity;BME280_pressure;Samples;Min_cycle;Max_cycle;Signal;HPM_P1;HPM_P2
2023/05/21 00:28:40;;;;;;;;;;;;;;;;;;5875293;24;19927;-84
2023/05/21 00:31:20;;;;;;;;;;;;;;;;;;5955504;24;19927;-84
2023/05/21 00:33:51;;;;;;;;;;;;;;;;;;6004603;23;19921;-84
2023/05/21 00:36:28;;;;;;;;;;;;;;;;;;6009917;23;19928;-83
2023/05/21 00:39:10;;;;;;;;;;;;;;;;;;6102453;23;19943;-83
2023/05/21 00:41:42;;;;;;;;;;;;;;;;;;6131505;23;19920;-84
2023/05/21 00:44:25;;;;;;;;;;;;;;;;;;6102104;23;20264;-84
2023/05/21 00:50:20;;;;;;;;;;;;;;;;;;6023841;23;19922;-83
2023/05/21 00:53:09;;;;;;;;;;;;;;;;;;6034118;23;19920;-83
2023/05/21 00:55:39;;;;;;;;;;;;;;;;;;6163757;23;19943;-83
2023/05/21 00:58:24;;;;;;;;;;;;;;;;;;6126856;23;19927;-84
2023/05/21 01:00:54;;;;;;;;;;;;;;;;;;6103021;23;19921;-83
2023/05/21 01:07:19;;;;;;;;;;;;;;;;;;;;;
2023/05/21 01:10:06;;;;;;;;;;;;;;;;;;6086201;23;19921;-83
2023/05/21 01:16:34;;;;;;;;;;;;;;;;;;;;;
2023/05/21 01:19:31;;;;;;;;;;;;;;;;;;5906396;23;20447;-83
2023/05/21 01:22:31;;;;;;;;;;;;;;;;;;6067215;23;19929;-83
2023/05/21 01:25:45;;;;;;;;;;;;;;;;;;6064449;23;19921;-83
2023/05/21 02:00:28;;;;;;;;;;;;;;;;;;;;;
2023/05/21 02:07:14;;;;;;;;;;;;;;;;;;5962959;23;19978;-83
2023/05/21 02:10:31;;;;;;;;;;;;;;;;;;5969904;23;20366;-83
2023/05/21 02:13:49;;;;;;;;;;;;;;;;;;;;;
2023/05/21 02:16:42;;;;;;;;;;;;;;;;;;6058831;23;20345;-83
2023/05/21 02:19:45;;;;;;;;;;;;;;;;;;;;;
2023/05/21 02:22:40;;;;;;;;;;;;;;;;;;6007072;23;19926;-83
2023/05/21 02:25:24;;;;;;;;;;;;;;;;;;5873227;24;19976;-83
2023/05/21 02:28:19;;;;;;;;;;;;;;;;;;;;;
2023/05/21 02:31:16;;;;;;;;;;;;;;;;;;5961236;23;19938;-83
2023/05/21 02:34:41;;;;;;;;;;;;;;;;;;5940227;23;19932;-83
2023/05/21 02:38:13;;;;;;;;;;;;;;;;;;;;;
2023/05/21 04:17:54;;;;;;;;;;;;;;;;;;;;;
2023/05/21 04:49:28;;;;;;;;;;;;;;;;;;5873729;24;19924;-82
2023/05/21 04:55:22;;;;;;;;;;;;;;;;;;5997416;23;20265;-83
2023/05/21 04:58:23;;;;;;;;;;;;;;;;;;;;;
2023/05/21 05:05:21;;;;;;;;;;;;;;;;;;5970602;23;19923;-82
2023/05/21 05:27:18;;;;;;;;;;;;;;;;;;5941857;24;19923;-81
2023/05/21 05:29:45;;;;;;;;;;;;;;;;;;6007074;23;19921;-81
2023/05/21 05:32:14;;;;;;;;;;;;;;;;;;6051629;23;19938;-81
2023/05/21 05:34:45;;;;;;;;;;;;;;;;;;6081833;23;19932;-81
2023/05/21 05:37:12;;;;;;;;;;;;;;;;;;6142771;23;19921;-81
2023/05/21 05:39:39;;;;;;;;;;;;;;;;;;6091931;23;19931;-81
2023/05/21 05:42:06;;;;;;;;;;;;;;;;;;6115099;23;19927;-81
2023/05/21 05:44:35;;;;;;;;;;;;;;;;;;6089303;23;19924;-81
2023/05/21 05:47:02;;;;;;;;;;;;;;;;;;6114049;23;20294;-81
2023/05/21 06:39:46;;;;;;;;;;;;;;;;;;;;;
2023/05/21 06:42:42;;;;;;;;;;;;;;;;;;6062139;23;19922;-83
2023/05/21 06:45:53;;;;;;;;;;;;;;;;;;5998916;23;19922;-83
2023/05/21 06:48:48;;;;;;;;;;;;;;;;;;6094220;23;19966;-83
2023/05/21 07:34:18;;;;;;;;;;;;;;;;;;6163555;23;19921;-81
2023/05/21 07:36:46;;;;;;;;;;;;;;;;;;6111571;23;19927;-82
2023/05/21 07:39:13;;;;;;;;;;;;;;;;;;6106026;23;19928;-82
2023/05/21 07:41:42;;;;;;;;;;;;;;;;;;6081151;23;19935;-82
2023/05/21 07:47:05;;;;;;;;;;;;;;;;;;6103702;23;19932;-82
2023/05/21 07:49:36;;;;;;;;;;;;;;;;;;6066717;23;20258;-82
2023/05/21 07:52:03;;;;;;;;;;;;;;;;;;6063538;23;20478;-82
2023/05/21 07:54:31;;;;;;;;;;;;;;;;;;6043337;23;19921;-83
2023/05/21 07:56:58;;;;;;;;;;;;;;;;;;6041741;23;20282;-82
2023/05/21 07:59:45;;;;;;;;;;;;;;;;;;6039716;23;19925;-82
2023/05/21 08:02:12;;;;;;;;;;;;;;;;;;6017225;23;19921;-83
2023/05/21 08:04:43;;;;;;;;;;;;;;;;;;6018989;23;19921;-83
2023/05/21 08:07:11;;;;;;;;;;;;;;;;;;6042647;23;19921;-83
2023/05/21 08:09:38;;;;;;;;;;;;;;;;;;6018496;23;19952;-82
2023/05/21 08:12:13;;;;;;;;;;;;;;;;;;6016938;23;19926;-83
2023/05/21 08:14:40;;;;;;;;;;;;;;;;;;6019433;23;19921;-82
2023/05/21 08:17:10;;;;;;;;;;;;;;;;;;6046432;23;19937;-82
2023/05/21 08:19:40;;;;;;;;;;;;;;;;;;6000939;23;19921;-83
2023/05/21 08:22:17;;;;;;;;;;;;;;;;;;6019284;23;19922;-84
2023/05/21 08:24:45;;;;;;;;;;;;;;;;;;6044672;23;20306;-82
2023/05/21 08:27:15;;;;;;;;;;;;;;;;;;6051688;23;19925;-82
2023/05/21 08:29:46;;;;;;;;;;;;;;;;;;6047405;23;19936;-83
2023/05/21 08:32:18;;;;;;;;;;;;;;;;;;6091402;23;19964;-82
2023/05/21 08:34:49;;;;;;;;;;;;;;;;;;6020135;23;19922;-82
2023/05/21 08:37:35;;;;;;;;;;;;;;;;;;6021256;23;20339;-83
2023/05/21 08:40:29;;;;;;;;;;;;;;;;;;6046576;23;19921;-83
2023/05/21 08:43:00;;;;;;;;;;;;;;;;;;6020438;23;19925;-83
2023/05/21 08:45:39;;;;;;;;;;;;;;;;;;6045721;23;19925;-83
2023/05/21 08:48:06;;;;;;;;;;;;;;;;;;6041206;23;19929;-83
2023/05/21 08:50:35;;;;;;;;;;;;;;;;;;6018623;23;19925;-83
2023/05/21 08:53:09;;;;;;;;;;;;;;;;;;6022316;23;19926;-82
2023/05/21 08:55:37;;;;;;;;;;;;;;;;;;6070871;23;19928;-82
2023/05/21 08:58:05;;;;;;;;;;;;;;;;;;6020734;23;20258;-82
2023/05/21 09:00:34;;;;;;;;;;;;;;;;;;6017247;23;19925;-83
2023/05/21 09:03:06;;;;;;;;;;;;;;;;;;6018234;23;19926;-82
2023/05/21 09:05:35;;;;;;;;;;;;;;;;;;6103311;23;19929;-83
2023/05/21 09:08:05;;;;;;;;;;;;;;;;;;6066993;23;20004;-83
2023/05/21 09:11:05;;;;;;;;;;;;;;;;;;6041479;23;20334;-85
2023/05/21 09:13:38;;;;;;;;;;;;;;;;;;6071431;23;19921;-83
2023/05/21 09:16:09;;;;;;;;;;;;;;;;;;6019392;23;20377;-82
2023/05/21 09:18:37;;;;;;;;;;;;;;;;;;6019168;23;19929;-83
2023/05/21 09:21:23;;;;;;;;;;;;;;;;;;6066472;23;19921;-83
2023/05/21 09:23:54;;;;;;;;;;;;;;;;;;6019037;23;19925;-83
2023/05/21 09:26:25;;;;;;;;;;;;;;;;;;6076231;23;19922;-83
2023/05/21 09:28:56;;;;;;;;;;;;;;;;;;6074404;23;20358;-83
2023/05/21 09:31:26;;;;;;;;;;;;;;;;;;6044397;23;19928;-82
2023/05/21 09:33:54;;;;;;;;;;;;;;;;;;6093759;23;19929;-83
2023/05/21 09:36:24;;;;;;;;;;;;;;;;;;6045989;23;20282;-83
2023/05/21 09:38:53;;;;;;;;;;;;;;;;;;6042365;23;19933;-83
2023/05/21 09:41:21;;;;;;;;;;;;;;;;;;6066242;23;19929;-83
2023/05/21 09:47:02;;;;;;;;;;;;;;;;;;6019805;23;19926;-83
2023/05/21 09:49:30;;;;;;;;;;;;;;;;;;6043176;23;19922;-83
2023/05/21 09:51:59;;;;;;;;;;;;;;;;;;6042272;23;19922;-83
2023/05/21 09:54:30;;;;;;;;;;;;;;;;;;6092259;23;19922;-83
2023/05/21 09:56:57;;;;;;;;;;;;;;;;;;6067284;23;19926;-83
2023/05/21 09:59:25;;;;;;;;;;;;;;;;;;6043953;23;19922;-83
2023/05/21 10:01:54;;;;;;;;;;;;;;;;;;6067114;23;20254;-83
2023/05/21 10:04:24;;;;;;;;;;;;;;;;;;6054374;23;19921;-83
2023/05/21 10:06:51;;;;;;;;;;;;;;;;;;6021096;23;19921;-83
2023/05/21 10:09:20;;;;;;;;;;;;;;;;;;6053669;23;19922;-82
2023/05/21 10:11:47;;;;;;;;;;;;;;;;;;6057792;23;20335;-82
2023/05/21 10:14:17;;;;;;;;;;;;;;;;;;6051332;23;19922;-82
2023/05/21 10:16:44;;;;;;;;;;;;;;;;;;6051903;23;19928;-82
2023/05/21 10:41:48;;;;;;;;;;;;;;;;;;6173470;23;19921;-92
2023/05/21 10:44:17;;;;;;;;;;;;;;;;;;6156083;23;19931;-91
2023/05/21 10:47:00;;;;;;;;;;;;;;;;;;6118515;23;20263;-92
2023/05/21 10:49:35;;;;;;;;;;;;;;;;;;6182027;23;19924;-92
2023/05/21 10:52:09;;;;;;;;;;;;;;;;;;6179845;23;20397;-91
2023/05/21 10:54:58;;;;;;;;;;;;;;;;;;6146208;23;19924;-93
2023/05/21 10:57:34;;;;;;;;;;;;;;;;;;6179666;23;20053;-92
2023/05/21 11:00:02;;;;;;;;;;;;;;;;;;6150244;23;19934;-92
2023/05/21 11:02:32;;;;;;;;;;;;;;;;;;6149615;23;19924;-93
2023/05/21 11:05:04;;;;;;;;;;;;;;;;;;6152058;23;19915;-93
2023/05/21 11:07:51;;;;;;;;;;;;;;;;;;6176170;23;19908;-92
2023/05/21 11:10:32;;;;;;;;;;;;;;;;;;6162163;23;19911;-92
2023/05/21 11:13:13;;;;;;;;;;;;;;;;;;6178517;23;19931;-93
2023/05/21 11:16:04;;;;;;;;;;;;;;;;;;6150798;23;20109;-92
2023/05/21 11:18:48;;;;;;;;;;;;;;;;;;6187498;23;19931;-93
2023/05/21 11:21:18;;;;;;;;;;;;;;;;;;6171898;23;19921;-93
2023/05/21 11:23:51;;;;;;;;;;;;;;;;;;6161321;23;19917;-92
2023/05/21 11:26:19;;;;;;;;;;;;;;;;;;6176199;23;19916;-92
2023/05/21 11:28:48;;;;;;;;;;;;;;;;;;6147630;23;19920;-92
2023/05/21 11:31:22;;;;;;;;;;;;;;;;;;6151375;23;19920;-92
2023/05/21 11:34:16;;;;;;;;;;;;;;;;;;6188501;23;19908;-91
2023/05/21 11:36:49;;;;;;;;;;;;;;;;;;6183908;23;20371;-92
2023/05/21 11:39:21;;;;;;;;;;;;;;;;;;6180732;23;19968;-91
2023/05/21 11:41:52;;;;;;;;;;;;;;;;;;6174737;23;20162;-93
2023/05/21 11:44:25;;;;;;;;;;;;;;;;;;6163377;23;19905;-92
2023/05/21 11:46:52;;;;;;;;;;;;;;;;;;6151450;23;19931;-90
2023/05/21 11:49:22;;;;;;;;;;;;;;;;;;6153050;23;19915;-92
2023/05/21 11:51:52;;;;;;;;;;;;;;;;;;6152497;23;19920;-92
2023/05/21 11:54:19;;;;;;;;;;;;;;;;;;6152183;23;19909;-91
2023/05/21 11:56:47;;;;;;;;;;;;;;;;;;6180831;23;19948;-90
2023/05/21 11:59:15;;;;;;;;;;;;;;;;;;6178009;23;19908;-91
2023/05/21 12:01:44;;;;;;;;;;;;;;;;;;6168917;23;19925;-92
2023/05/21 12:04:11;;;;;;;;;;;;;;;;;;6173509;23;20358;-92
2023/05/21 12:06:42;;;;;;;;;;;;;;;;;;6128217;23;19924;-90
2023/05/21 12:09:13;;;;;;;;;;;;;;;;;;6147241;23;19925;-91
2023/05/21 12:11:43;;;;;;;;;;;;;;;;;;6123917;23;19920;-92
2023/05/21 12:14:11;;;;;;;;;;;;;;;;;;6171161;23;19920;-90
2023/05/21 12:16:39;;;;;;;;;;;;;;;;;;6146838;23;19921;-92
2023/05/21 12:19:10;;;;;;;;;;;;;;;;;;6168233;23;19915;-92
2023/05/21 12:21:37;;;;;;;;;;;;;;;;;;6177771;23;19931;-92
2023/05/21 12:24:05;;;;;;;;;;;;;;;;;;6150243;23;19919;-91
2023/05/21 12:26:34;;;;;;;;;;;;;;;;;;6130682;23;19960;-91
2023/05/21 12:29:03;;;;;;;;;;;;;;;;;;6155880;23;19909;-91
2023/05/21 12:31:57;;;;;;;;;;;;;;;;;;6179737;23;19919;-92
2023/05/21 12:37:42;;;;;;;;;;;;;;;;;;6162128;23;19926;-83
2023/05/21 12:40:10;;;;;;;;;;;;;;;;;;6108472;23;19930;-84
2023/05/21 12:42:40;;;;;;;;;;;;;;;;;;6166094;23;19921;-82
2023/05/21 12:45:09;;;;;;;;;;;;;;;;;;6153734;23;20298;-83
2023/05/21 12:47:36;;;;;;;;;;;;;;;;;;6127991;23;19928;-83
2023/05/21 12:52:46;;;;;;;;;;;;;;;;;;6104853;23;19920;-81
2023/05/21 12:55:14;;;;;;;;;;;;;;;;;;6160123;23;19932;-82
2023/05/21 12:57:44;;;;;;;;;;;;;;;;;;6163462;23;19920;-81
2023/05/21 13:00:14;;;;;;;;;;;;;;;;;;6088549;23;19921;-81
2023/05/21 13:02:41;;;;;;;;;;;;;;;;;;6077874;23;19921;-81
2023/05/21 13:05:08;;;;;;;;;;;;;;;;;;6080349;23;20024;-81
2023/05/21 13:07:38;;;;;;;;;;;;;;;;;;6104310;23;20305;-81
2023/05/21 13:10:11;;;;;;;;;;;;;;;;;;6080026;23;19921;-83
2023/05/21 13:12:40;;;;;;;;;;;;;;;;;;6113451;23;19943;-81
2023/05/21 13:15:12;;;;;;;;;;;;;;;;;;6079518;23;20257;-82
2023/05/21 13:17:41;;;;;;;;;;;;;;;;;;6079958;23;19936;-83
2023/05/21 13:20:12;;;;;;;;;;;;;;;;;;6080608;23;19925;-82
2023/05/21 13:22:41;;;;;;;;;;;;;;;;;;6078278;23;19931;-83
2023/05/21 13:25:14;;;;;;;;;;;;;;;;;;6136396;23;19928;-83
2023/05/21 13:27:43;;;;;;;;;;;;;;;;;;6101702;23;19921;-83
2023/05/21 13:30:16;;;;;;;;;;;;;;;;;;6100668;23;19921;-84
2023/05/21 13:32:43;;;;;;;;;;;;;;;;;;6101360;23;19921;-83
2023/05/21 13:35:11;;;;;;;;;;;;;;;;;;6076310;23;19928;-82
2023/05/21 13:37:38;;;;;;;;;;;;;;;;;;6100905;23;19921;-83
2023/05/21 13:40:06;;;;;;;;;;;;;;;;;;6075095;23;19928;-83
2023/05/21 13:42:37;;;;;;;;;;;;;;;;;;6123070;23;19921;-83
2023/05/21 13:45:04;;;;;;;;;;;;;;;;;;6099469;23;19921;-84
2023/05/21 13:47:34;;;;;;;;;;;;;;;;;;6076675;23;19925;-83
2023/05/21 13:50:01;;;;;;;;;;;;;;;;;;6100700;23;19920;-83
2023/05/21 13:52:30;;;;;;;;;;;;;;;;;;6135624;23;19921;-83
2023/05/21 13:54:57;;;;;;;;;;;;;;;;;;6099269;23;19925;-83
2023/05/21 13:57:29;;;;;;;;;;;;;;;;;;6125908;23;19928;-83
2023/05/21 13:59:57;;;;;;;;;;;;;;;;;;6128821;23;19921;-83
2023/05/21 14:02:24;;;;;;;;;;;;;;;;;;6099446;23;19921;-83
2023/05/21 14:04:51;;;;;;;;;;;;;;;;;;6099552;23;19928;-83
2023/05/21 14:07:20;;;;;;;;;;;;;;;;;;6076034;23;19929;-83
2023/05/21 14:09:47;;;;;;;;;;;;;;;;;;6099390;23;19924;-83
2023/05/21 14:12:17;;;;;;;;;;;;;;;;;;6075633;23;19928;-83
2023/05/21 14:14:48;;;;;;;;;;;;;;;;;;6075890;23;19921;-83
2023/05/21 14:17:17;;;;;;;;;;;;;;;;;;6100105;23;19920;-83
2023/05/21 14:19:44;;;;;;;;;;;;;;;;;;6075474;23;19940;-83
2023/05/21 14:22:11;;;;;;;;;;;;;;;;;;6103951;23;19921;-82
2023/05/21 14:24:37;;;;;;;;;;;;;;;;;;6129019;23;20226;-83
2023/05/21 14:27:09;;;;;;;;;;;;;;;;;;6128544;23;19929;-83
2023/05/21 14:29:39;;;;;;;;;;;;;;;;;;6127929;23;20423;-83
2023/05/21 14:32:07;;;;;;;;;;;;;;;;;;6150184;23;19921;-83
2023/05/21 14:34:39;;;;;;;;;;;;;;;;;;6153622;23;19932;-83
2023/05/21 14:37:08;;;;;;;;;;;;;;;;;;6138962;23;19928;-83
2023/05/21 14:39:35;;;;;;;;;;;;;;;;;;6129484;23;19927;-83
2023/05/21 14:42:02;;;;;;;;;;;;;;;;;;6128466;23;19928;-83
2023/05/21 14:44:30;;;;;;;;;;;;;;;;;;6153142;23;19924;-83
2023/05/21 14:46:59;;;;;;;;;;;;;;;;;;6127299;23;19920;-83
2023/05/21 14:49:26;;;;;;;;;;;;;;;;;;6151374;23;19947;-83
2023/05/21 14:51:54;;;;;;;;;;;;;;;;;;6101172;23;19924;-83
2023/05/21 14:54:21;;;;;;;;;;;;;;;;;;6151982;23;20234;-83
2023/05/21 14:56:51;;;;;;;;;;;;;;;;;;6104387;23;19920;-82
2023/05/21 14:59:41;;;;;;;;;;;;;;;;;;6109181;23;20250;-83
2023/05/21 15:02:09;;;;;;;;;;;;;;;;;;6110431;23;19932;-81
2023/05/21 15:04:36;;;;;;;;;;;;;;;;;;6150669;23;19904;-81
2023/05/21 15:07:07;;;;;;;;;;;;;;;;;;6173611;23;20431;-81
2023/05/21 15:09:37;;;;;;;;;;;;;;;;;;6147757;23;19921;-82
2023/05/21 15:12:06;;;;;;;;;;;;;;;;;;6129457;23;19925;-82
2023/05/21 15:14:33;;;;;;;;;;;;;;;;;;6128915;23;19943;-82
2023/05/21 15:17:03;;;;;;;;;;;;;;;;;;6153199;23;19928;-83
2023/05/21 15:19:35;;;;;;;;;;;;;;;;;;6154843;23;19920;-82
2023/05/21 15:22:05;;;;;;;;;;;;;;;;;;6154011;23;19932;-83
2023/05/21 15:24:35;;;;;;;;;;;;;;;;;;6153762;23;19920;-83
2023/05/21 15:27:04;;;;;;;;;;;;;;;;;;6151692;23;20221;-83
2023/05/21 15:29:31;;;;;;;;;;;;;;;;;;6155029;23;19928;-83
2023/05/21 15:31:59;;;;;;;;;;;;;;;;;;6154228;23;19921;-82
2023/05/21 15:34:28;;;;;;;;;;;;;;;;;;6128684;23;19921;-83
2023/05/21 15:36:58;;;;;;;;;;;;;;;;;;6162066;23;19936;-83
2023/05/21 15:39:32;;;;;;;;;;;;;;;;;;6158092;23;19921;-83
2023/05/21 15:42:00;;;;;;;;;;;;;;;;;;6127838;23;19921;-83
2023/05/21 15:44:29;;;;;;;;;;;;;;;;;;6163263;23;19921;-83
2023/05/21 15:46:59;;;;;;;;;;;;;;;;;;6151779;23;19921;-83
2023/05/21 15:49:26;;;;;;;;;;;;;;;;;;6151659;23;19924;-83
2023/05/21 15:52:05;;;;;;;;;;;;;;;;;;6128166;23;19927;-83
2023/05/21 15:54:35;;;;;;;;;;;;;;;;;;6152875;23;20257;-83
2023/05/21 15:57:03;;;;;;;;;;;;;;;;;;6152216;23;19920;-83
2023/05/21 15:59:30;;;;;;;;;;;;;;;;;;6128068;23;19921;-83
2023/05/21 16:01:57;;;;;;;;;;;;;;;;;;6128365;23;19921;-84
2023/05/21 16:04:24;;;;;;;;;;;;;;;;;;6127982;23;19943;-82
2023/05/21 16:06:56;;;;;;;;;;;;;;;;;;6163009;23;20301;-82
2023/05/21 16:09:23;;;;;;;;;;;;;;;;;;6151491;23;19943;-82
2023/05/21 16:11:50;;;;;;;;;;;;;;;;;;6154209;23;19924;-82
2023/05/21 16:14:22;;;;;;;;;;;;;;;;;;6154912;23;20115;-82
2023/05/21 16:16:49;;;;;;;;;;;;;;;;;;6152565;23;19924;-82
2023/05/21 16:19:16;;;;;;;;;;;;;;;;;;6127040;23;20254;-82
2023/05/21 16:21:48;;;;;;;;;;;;;;;;;;6127402;23;19928;-83
2023/05/21 16:24:19;;;;;;;;;;;;;;;;;;6154583;23;19924;-83
2023/05/21 16:26:49;;;;;;;;;;;;;;;;;;6127455;23;19928;-82
2023/05/21 16:29:18;;;;;;;;;;;;;;;;;;6128221;23;19920;-82
2023/05/21 16:31:48;;;;;;;;;;;;;;;;;;6152929;23;19921;-83
2023/05/21 16:34:15;;;;;;;;;;;;;;;;;;6153161;23;20342;-83
2023/05/21 16:36:42;;;;;;;;;;;;;;;;;;6150132;23;19921;-83
2023/05/21 16:39:11;;;;;;;;;;;;;;;;;;6126154;23;19924;-84
2023/05/21 16:41:38;;;;;;;;;;;;;;;;;;6127438;23;19927;-83
2023/05/21 16:44:10;;;;;;;;;;;;;;;;;;6152352;23;19928;-83
2023/05/21 16:46:37;;;;;;;;;;;;;;;;;;6152294;23;19921;-83
2023/05/21 16:49:06;;;;;;;;;;;;;;;;;;6123869;23;20372;-83
2023/05/21 16:51:33;;;;;;;;;;;;;;;;;;6126103;23;19921;-83
2023/05/21 16:54:05;;;;;;;;;;;;;;;;;;6127254;23;19924;-83
2023/05/21 16:56:36;;;;;;;;;;;;;;;;;;6127724;23;19928;-83
2023/05/21 16:59:03;;;;;;;;;;;;;;;;;;6151844;23;20249;-83
2023/05/21 17:01:33;;;;;;;;;;;;;;;;;;6151059;23;19921;-83
2023/05/21 17:04:03;;;;;;;;;;;;;;;;;;6152194;23;19921;-83
2023/05/21 17:06:36;;;;;;;;;;;;;;;;;;6127496;23;20264;-83
2023/05/21 17:09:06;;;;;;;;;;;;;;;;;;6126925;23;19921;-83
2023/05/21 17:11:37;;;;;;;;;;;;;;;;;;6128503;23;19921;-83
2023/05/21 17:14:07;;;;;;;;;;;;;;;;;;6155959;23;19920;-82
2023/05/21 17:16:34;;;;;;;;;;;;;;;;;;6130626;23;19925;-82
2023/05/21 17:19:03;;;;;;;;;;;;;;;;;;6155404;23;19928;-82
2023/05/21 17:21:30;;;;;;;;;;;;;;;;;;6130285;23;20319;-81
2023/05/21 17:23:59;;;;;;;;;;;;;;;;;;6130373;23;19952;-82
2023/05/21 17:26:26;;;;;;;;;;;;;;;;;;6156739;23;19930;-82
2023/05/21 17:28:53;;;;;;;;;;;;;;;;;;6154847;23;19921;-82
2023/05/21 17:31:20;;;;;;;;;;;;;;;;;;6129995;23;20219;-82
2023/05/21 17:33:50;;;;;;;;;;;;;;;;;;6155513;23;20261;-82
2023/05/21 17:36:25;;;;;;;;;;;;;;;;;;6156480;23;19920;-82
2023/05/21 17:38:54;;;;;;;;;;;;;;;;;;6156215;23;19931;-82
2023/05/21 17:41:25;;;;;;;;;;;;;;;;;;6156144;23;19927;-82
2023/05/21 17:43:55;;;;;;;;;;;;;;;;;;6156233;23;19927;-82
2023/05/21 17:46:22;;;;;;;;;;;;;;;;;;6157194;23;19928;-82
2023/05/21 17:48:50;;;;;;;;;;;;;;;;;;6158521;23;19921;-82
2023/05/21 17:51:19;;;;;;;;;;;;;;;;;;6156162;23;20235;-82
2023/05/21 17:53:49;;;;;;;;;;;;;;;;;;6157892;23;19928;-82
2023/05/21 17:56:18;;;;;;;;;;;;;;;;;;6132534;23;20348;-82
2023/05/21 17:58:48;;;;;;;;;;;;;;;;;;6132667;23;19921;-82
2023/05/21 18:01:15;;;;;;;;;;;;;;;;;;6131595;23;19924;-82
2023/05/21 18:03:44;;;;;;;;;;;;;;;;;;6133529;23;20341;-82
2023/05/21 18:06:13;;;;;;;;;;;;;;;;;;6132760;23;19921;-81
2023/05/21 18:08:43;;;;;;;;;;;;;;;;;;6157418;23;19920;-81
2023/05/21 18:11:12;;;;;;;;;;;;;;;;;;6157319;23;20345;-82
2023/05/21 18:13:41;;;;;;;;;;;;;;;;;;6133263;23;19920;-82
2023/05/21 18:16:37;;;;;;;;;;;;;;;;;;6157854;23;19920;-82
2023/05/21 18:19:06;;;;;;;;;;;;;;;;;;6133821;23;19927;-82
2023/05/21 18:21:34;;;;;;;;;;;;;;;;;;6157433;23;19925;-82
2023/05/21 18:24:03;;;;;;;;;;;;;;;;;;6157814;23;19921;-82
2023/05/21 18:26:30;;;;;;;;;;;;;;;;;;6157642;23;19943;-82
2023/05/21 18:28:59;;;;;;;;;;;;;;;;;;6157673;23;19920;-82
2023/05/21 18:31:29;;;;;;;;;;;;;;;;;;6157998;23;20341;-82
2023/05/21 18:33:57;;;;;;;;;;;;;;;;;;6133313;23;20429;-82
2023/05/21 18:36:37;;;;;;;;;;;;;;;;;;6156949;23;19925;-82
2023/05/21 18:39:04;;;;;;;;;;;;;;;;;;6136449;23;19925;-81
2023/05/21 18:41:31;;;;;;;;;;;;;;;;;;6161649;23;19924;-81
2023/05/21 18:44:00;;;;;;;;;;;;;;;;;;6137812;23;19931;-81
2023/05/21 18:46:32;;;;;;;;;;;;;;;;;;6173948;23;19921;-81
2023/05/21 18:49:05;;;;;;;;;;;;;;;;;;6168767;23;19929;-81
2023/05/21 18:51:34;;;;;;;;;;;;;;;;;;6162083;23;19927;-81
2023/05/21 18:54:01;;;;;;;;;;;;;;;;;;6172549;23;19927;-81
2023/05/21 18:56:31;;;;;;;;;;;;;;;;;;6114542;23;19921;-81
2023/05/21 18:58:58;;;;;;;;;;;;;;;;;;6162435;23;19931;-81
2023/05/21 19:01:28;;;;;;;;;;;;;;;;;;6160265;23;19924;-81
2023/05/21 19:03:55;;;;;;;;;;;;;;;;;;6134941;23;20238;-81
2023/05/21 19:06:26;;;;;;;;;;;;;;;;;;6133234;23;19921;-82
2023/05/21 19:08:55;;;;;;;;;;;;;;;;;;6133120;23;19921;-82
2023/05/21 19:11:50;;;;;;;;;;;;;;;;;;6169638;23;20418;-81
2023/05/21 19:14:19;;;;;;;;;;;;;;;;;;6157129;23;19932;-81
2023/05/21 19:16:46;;;;;;;;;;;;;;;;;;6158175;23;19921;-81
2023/05/21 19:19:15;;;;;;;;;;;;;;;;;;6156904;23;20272;-81
2023/05/21 19:21:43;;;;;;;;;;;;;;;;;;6133653;23;19920;-82
2023/05/21 19:24:13;;;;;;;;;;;;;;;;;;6132836;23;19921;-82
2023/05/21 19:26:42;;;;;;;;;;;;;;;;;;6132835;23;19927;-81
2023/05/21 19:29:12;;;;;;;;;;;;;;;;;;6157981;23;19920;-81
2023/05/21 19:31:41;;;;;;;;;;;;;;;;;;6156818;23;19925;-81
2023/05/21 19:34:13;;;;;;;;;;;;;;;;;;6169759;23;19924;-81
2023/05/21 19:36:44;;;;;;;;;;;;;;;;;;6134148;23;19928;-81
2023/05/21 19:39:13;;;;;;;;;;;;;;;;;;6157364;23;20256;-81
2023/05/21 19:41:43;;;;;;;;;;;;;;;;;;6132697;23;19920;-81
2023/05/21 19:44:13;;;;;;;;;;;;;;;;;;6157773;23;19920;-82
2023/05/21 19:46:42;;;;;;;;;;;;;;;;;;6134294;23;19927;-81
2023/05/21 19:49:13;;;;;;;;;;;;;;;;;;6154492;23;20273;-81
2023/05/21 19:51:40;;;;;;;;;;;;;;;;;;6130684;23;19924;-81
2023/05/21 19:54:08;;;;;;;;;;;;;;;;;;6133704;23;19920;-81
2023/05/21 19:56:37;;;;;;;;;;;;;;;;;;6133278;23;19920;-81
2023/05/21 19:59:07;;;;;;;;;;;;;;;;;;6158675;23;19921;-81
2023/05/21 20:01:38;;;;;;;;;;;;;;;;;;6130651;23;20376;-81
2023/05/21 20:04:05;;;;;;;;;;;;;;;;;;6132510;23;19928;-81
2023/05/21 20:06:35;;;;;;;;;;;;;;;;;;6158976;23;19928;-81
2023/05/21 20:09:02;;;;;;;;;;;;;;;;;;6137781;23;19927;-81
2023/05/21 20:11:31;;;;;;;;;;;;;;;;;;6161206;23;19931;-81
2023/05/21 20:14:03;;;;;;;;;;;;;;;;;;6138653;23;19920;-81
2023/05/21 20:16:35;;;;;;;;;;;;;;;;;;6137293;23;19924;-81
2023/05/21 20:19:27;;;;;;;;;;;;;;;;;;6169617;23;19920;-82
2023/05/21 20:21:54;;;;;;;;;;;;;;;;;;6135714;23;20381;-82
2023/05/21 20:24:23;;;;;;;;;;;;;;;;;;6165747;23;19921;-82
2023/05/21 20:26:54;;;;;;;;;;;;;;;;;;6134261;23;19920;-81
2023/05/21 20:29:21;;;;;;;;;;;;;;;;;;6160375;23;19927;-81
2023/05/21 20:31:51;;;;;;;;;;;;;;;;;;6159174;23;19924;-81
2023/05/21 20:34:19;;;;;;;;;;;;;;;;;;6135673;23;19920;-81
2023/05/21 20:36:46;;;;;;;;;;;;;;;;;;6133666;23;19921;-82
2023/05/21 20:39:14;;;;;;;;;;;;;;;;;;6135932;23;19920;-82
2023/05/21 20:41:43;;;;;;;;;;;;;;;;;;6160070;23;19921;-80
2023/05/21 20:44:12;;;;;;;;;;;;;;;;;;6168094;23;19921;-81
2023/05/21 20:46:39;;;;;;;;;;;;;;;;;;6135724;23;19920;-81
2023/05/21 20:49:09;;;;;;;;;;;;;;;;;;6134329;23;19924;-80
2023/05/21 20:51:38;;;;;;;;;;;;;;;;;;6156972;23;19931;-80
2023/05/21 20:54:05;;;;;;;;;;;;;;;;;;6133472;23;19920;-80
2023/05/21 20:56:35;;;;;;;;;;;;;;;;;;6134372;23;20252;-80
2023/05/21 20:59:05;;;;;;;;;;;;;;;;;;6134001;23;19927;-80
2023/05/21 21:01:33;;;;;;;;;;;;;;;;;;6133841;23;19927;-80
2023/05/21 21:04:03;;;;;;;;;;;;;;;;;;6134134;23;19921;-80
2023/05/21 21:06:45;;;;;;;;;;;;;;;;;;6156911;23;19920;-80
2023/05/21 21:09:12;;;;;;;;;;;;;;;;;;6165362;23;19924;-80
2023/05/21 21:11:42;;;;;;;;;;;;;;;;;;6159246;23;19920;-80
2023/05/21 21:14:09;;;;;;;;;;;;;;;;;;6135569;23;19924;-80
2023/05/21 21:16:37;;;;;;;;;;;;;;;;;;6162989;23;19927;-80
2023/05/21 21:19:15;;;;;;;;;;;;;;;;;;6165375;23;19927;-81
2023/05/21 21:21:46;;;;;;;;;;;;;;;;;;6163114;23;20333;-80
2023/05/21 21:24:15;;;;;;;;;;;;;;;;;;6163481;23;19921;-80
2023/05/21 21:26:42;;;;;;;;;;;;;;;;;;6165285;23;19920;-81
2023/05/21 21:29:09;;;;;;;;;;;;;;;;;;6140219;23;19927;-81
2023/05/21 21:31:37;;;;;;;;;;;;;;;;;;6177577;23;20351;-81
2023/05/21 21:34:05;;;;;;;;;;;;;;;;;;6140637;23;19920;-81
2023/05/21 21:36:36;;;;;;;;;;;;;;;;;;6164583;23;19964;-81
2023/05/21 21:39:03;;;;;;;;;;;;;;;;;;6140334;23;19921;-80
2023/05/21 21:41:30;;;;;;;;;;;;;;;;;;6174755;23;19921;-80
2023/05/21 21:43:57;;;;;;;;;;;;;;;;;;6137163;23;19927;-80
2023/05/21 21:46:27;;;;;;;;;;;;;;;;;;6176383;23;19942;-81
2023/05/21 21:48:55;;;;;;;;;;;;;;;;;;6164059;23;19921;-81
2023/05/21 21:51:22;;;;;;;;;;;;;;;;;;6163623;23;19927;-81
2023/05/21 21:53:49;;;;;;;;;;;;;;;;;;6140223;23;20261;-81
2023/05/21 21:56:16;;;;;;;;;;;;;;;;;;6164724;23;20345;-81
2023/05/21 21:58:43;;;;;;;;;;;;;;;;;;6164267;23;19921;-81
2023/05/21 22:01:12;;;;;;;;;;;;;;;;;;6165059;23;19924;-81
2023/05/21 22:03:42;;;;;;;;;;;;;;;;;;6164190;23;20253;-81
2023/05/21 22:06:10;;;;;;;;;;;;;;;;;;6164854;23;20289;-81
2023/05/21 22:08:37;;;;;;;;;;;;;;;;;;6163944;23;19927;-81
2023/05/21 22:11:08;;;;;;;;;;;;;;;;;;6163213;23;19921;-81
2023/05/21 22:13:37;;;;;;;;;;;;;;;;;;6165816;23;20363;-81
2023/05/21 22:16:06;;;;;;;;;;;;;;;;;;6138597;23;19920;-81
2023/05/21 22:18:33;;;;;;;;;;;;;;;;;;6139993;23;19924;-81
2023/05/21 22:21:00;;;;;;;;;;;;;;;;;;6163904;23;20260;-80
2023/05/21 22:23:29;;;;;;;;;;;;;;;;;;6164439;23;19927;-81
2023/05/21 22:25:56;;;;;;;;;;;;;;;;;;6139145;23;20267;-81
2023/05/21 22:28:25;;;;;;;;;;;;;;;;;;6166227;23;20349;-80
2023/05/21 22:30:52;;;;;;;;;;;;;;;;;;6163313;23;19931;-81
2023/05/21 22:33:27;;;;;;;;;;;;;;;;;;6175622;23;19928;-80
2023/05/21 22:35:55;;;;;;;;;;;;;;;;;;6138356;23;19943;-81
2023/05/21 22:38:25;;;;;;;;;;;;;;;;;;6163020;23;19921;-80
2023/05/21 22:40:58;;;;;;;;;;;;;;;;;;6138182;23;20253;-81
2023/05/21 22:43:27;;;;;;;;;;;;;;;;;;6139467;23;19925;-81
2023/05/21 22:45:54;;;;;;;;;;;;;;;;;;6163070;23;19925;-81
2023/05/21 22:48:21;;;;;;;;;;;;;;;;;;6165163;23;20416;-81
2023/05/21 22:50:48;;;;;;;;;;;;;;;;;;6138030;23;19921;-81
2023/05/21 22:53:20;;;;;;;;;;;;;;;;;;6175144;23;19927;-81
2023/05/21 22:55:47;;;;;;;;;;;;;;;;;;6137621;23;19921;-81
2023/05/21 22:58:18;;;;;;;;;;;;;;;;;;6138395;23;19921;-80
2023/05/21 23:00:47;;;;;;;;;;;;;;;;;;6138378;23;19921;-81
2023/05/21 23:03:15;;;;;;;;;;;;;;;;;;6137955;23;19927;-81
2023/05/21 23:05:42;;;;;;;;;;;;;;;;;;6164329;23;19925;-81
2023/05/21 23:08:09;;;;;;;;;;;;;;;;;;6138681;23;19947;-81
2023/05/21 23:10:38;;;;;;;;;;;;;;;;;;6161748;23;20349;-81
2023/05/21 23:13:05;;;;;;;;;;;;;;;;;;6164565;23;19927;-81
2023/05/21 23:15:33;;;;;;;;;;;;;;;;;;6137146;23;19920;-81
2023/05/21 23:18:02;;;;;;;;;;;;;;;;;;6138437;23;19927;-81
2023/05/21 23:20:29;;;;;;;;;;;;;;;;;;6161840;23;19924;-81